sensor_id;sensor_type;location;lat;lon;timestamp;P1;durP1;ratioP1;P2;durP2;ratioP2
20637;SDS011;10478;49.004;8.470;2023-05-16T00:01:13;11.23;;;7.22;;
20637;SDS011;10478;49.004;8.470;2023-05-16T00:03:38;10.48;;;6.88;;
20637;SDS011;10478;49.004;8.470;2023-05-16T00:06:03;13.02;;;7.20;;
20637;SDS011;10478;49.004;8.470;2023-05-16T00:08:29;11.27;;;7.65;;
20637;SDS011;10478;49.004;8.470;2023-05-16T00:10:55;13.25;;;8.63;;
20637;SDS011;10478;49.004;8.470;2023-05-16T00:13:20;17.95;;;7.47;;
20637;SDS011;10478;49.004;8.470;2023-05-16T00:15:49;15.00;;;8.98;;
20637;SDS011;10478;49.004;8.470;2023-05-16T00:18:15;18.77;;;8.85;;
20637;SDS011;10478;49.004;8.470;2023-05-16T00:20:41;12.52;;;8.48;;
20637;SDS011;10478;49.004;8.470;2023-05-16T00:23:06;12.95;;;7.95;;
20637;SDS011;10478;49.004;8.470;2023-05-16T00:25:32;16.27;;;9.05;;
20637;SDS011;10478;49.004;8.470;2023-05-16T00:27:57;13.90;;;8.73;;
20637;SDS011;10478;49.004;8.470;2023-05-16T00:30:22;13.10;;;8.77;;
20637;SDS011;10478;49.004;8.470;2023-05-16T00:32:47;16.48;;;8.38;;
20637;SDS011;10478;49.004;8.470;2023-05-16T00:35:13;13.60;;;8.52;;
20637;SDS011;10478;49.004;8.470;2023-05-16T00:37:38;11.70;;;9.10;;
20637;SDS011;10478;49.004;8.470;2023-05-16T00:40:04;13.60;;;8.70;;
20637;SDS011;10478;49.004;8.470;2023-05-16T00:42:29;13.93;;;9.02;;
20637;SDS011;10478;49.004;8.470;2023-05-16T00:44:55;15.40;;;9.13;;
20637;SDS011;10478;49.004;8.470;2023-05-16T00:47:20;14.55;;;9.35;;
20637;SDS011;10478;49.004;8.470;2023-05-16T00:49:46;14.70;;;9.00;;
20637;SDS011;10478;49.004;8.470;2023-05-16T00:52:11;15.45;;;9.27;;
20637;SDS011;10478;49.004;8.470;2023-05-16T00:54:37;13.93;;;8.45;;
20637;SDS011;10478;49.004;8.470;2023-05-16T00:57:02;17.58;;;9.50;;
20637;SDS011;10478;49.004;8.470;2023-05-16T00:59:28;15.13;;;9.60;;
20637;SDS011;10478;49.004;8.470;2023-05-16T01:01:54;18.10;;;10.20;;
20637;SDS011;10478;49.004;8.470;2023-05-16T01:04:20;12.18;;;9.43;;
20637;SDS011;10478;49.004;8.470;2023-05-16T01:06:45;19.17;;;10.95;;
20637;SDS011;10478;49.004;8.470;2023-05-16T01:09:10;20.02;;;11.02;;
20637;SDS011;10478;49.004;8.470;2023-05-16T01:17:22;27.27;;;13.73;;
20637;SDS011;10478;49.004;8.470;2023-05-16T01:28:09;19.70;;;13.65;;
20637;SDS011;10478;49.004;8.470;2023-05-16T01:30:37;21.52;;;13.35;;
20637;SDS011;10478;49.004;8.470;2023-05-16T01:33:03;26.25;;;13.25;;
20637;SDS011;10478;49.004;8.470;2023-05-16T01:35:29;18.42;;;11.80;;
20637;SDS011;10478;49.004;8.470;2023-05-16T01:38:07;18.65;;;11.73;;
20637;SDS011;10478;49.004;8.470;2023-05-16T01:40:47;16.23;;;10.68;;
20637;SDS011;10478;49.004;8.470;2023-05-16T01:43:20;17.05;;;10.63;;
20637;SDS011;10478;49.004;8.470;2023-05-16T01:45:50;21.00;;;10.85;;
20637;SDS011;10478;49.004;8.470;2023-05-16T01:48:21;18.33;;;11.48;;
20637;SDS011;10478;49.004;8.470;2023-05-16T01:50:49;17.02;;;10.52;;
20637;SDS011;10478;49.004;8.470;2023-05-16T01:53:19;20.52;;;11.70;;
20637;SDS011;10478;49.004;8.470;2023-05-16T01:55:52;21.35;;;13.07;;
20637;SDS011;10478;49.004;8.470;2023-05-16T01:58:21;20.58;;;11.00;;
20637;SDS011;10478;49.004;8.470;2023-05-16T02:00:51;17.83;;;10.98;;
20637;SDS011;10478;49.004;8.470;2023-05-16T02:03:17;21.15;;;13.13;;
20637;SDS011;10478;49.004;8.470;2023-05-16T02:05:42;25.00;;;12.32;;
20637;SDS011;10478;49.004;8.470;2023-05-16T02:08:07;21.77;;;13.00;;
20637;SDS011;10478;49.004;8.470;2023-05-16T02:10:33;20.83;;;11.57;;
20637;SDS011;10478;49.004;8.470;2023-05-16T02:12:58;19.33;;;11.82;;
20637;SDS011;10478;49.004;8.470;2023-05-16T02:15:23;26.50;;;13.50;;
20637;SDS011;10478;49.004;8.470;2023-05-16T02:17:49;25.42;;;13.35;;
20637;SDS011;10478;49.004;8.470;2023-05-16T02:20:14;21.63;;;13.15;;
20637;SDS011;10478;49.004;8.470;2023-05-16T02:22:39;22.27;;;13.30;;
20637;SDS011;10478;49.004;8.470;2023-05-16T02:25:06;25.33;;;13.43;;
20637;SDS011;10478;49.004;8.470;2023-05-16T02:27:32;23.75;;;13.50;;
20637;SDS011;10478;49.004;8.470;2023-05-16T02:29:57;22.00;;;13.65;;
20637;SDS011;10478;49.004;8.470;2023-05-16T02:32:23;25.83;;;13.70;;
20637;SDS011;10478;49.004;8.470;2023-05-16T02:34:48;24.95;;;14.55;;
20637;SDS011;10478;49.004;8.470;2023-05-16T02:37:14;26.80;;;15.27;;
20637;SDS011;10478;49.004;8.470;2023-05-16T02:39:40;26.15;;;15.18;;
20637;SDS011;10478;49.004;8.470;2023-05-16T02:42:05;30.85;;;17.20;;
20637;SDS011;10478;49.004;8.470;2023-05-16T02:44:31;30.80;;;17.73;;
20637;SDS011;10478;49.004;8.470;2023-05-16T02:46:56;27.83;;;15.05;;
20637;SDS011;10478;49.004;8.470;2023-05-16T02:49:22;25.42;;;15.80;;
20637;SDS011;10478;49.004;8.470;2023-05-16T02:51:47;40.75;;;20.33;;
20637;SDS011;10478;49.004;8.470;2023-05-16T02:54:12;36.05;;;18.85;;
20637;SDS011;10478;49.004;8.470;2023-05-16T02:56:37;38.25;;;18.50;;
20637;SDS011;10478;49.004;8.470;2023-05-16T02:59:03;32.40;;;17.80;;
20637;SDS011;10478;49.004;8.470;2023-05-16T03:01:28;34.97;;;18.15;;
20637;SDS011;10478;49.004;8.470;2023-05-16T03:03:54;26.20;;;15.98;;
20637;SDS011;10478;49.004;8.470;2023-05-16T03:06:19;29.05;;;17.15;;
20637;SDS011;10478;49.004;8.470;2023-05-16T03:08:45;31.38;;;17.00;;
20637;SDS011;10478;49.004;8.470;2023-05-16T03:11:11;33.40;;;15.93;;
20637;SDS011;10478;49.004;8.470;2023-05-16T03:13:36;35.85;;;16.88;;
20637;SDS011;10478;49.004;8.470;2023-05-16T03:16:01;35.70;;;17.23;;
20637;SDS011;10478;49.004;8.470;2023-05-16T03:18:27;33.20;;;16.95;;
20637;SDS011;10478;49.004;8.470;2023-05-16T03:20:52;27.98;;;16.27;;
20637;SDS011;10478;49.004;8.470;2023-05-16T03:23:18;37.95;;;17.40;;
20637;SDS011;10478;49.004;8.470;2023-05-16T03:25:44;38.92;;;19.50;;
20637;SDS011;10478;49.004;8.470;2023-05-16T03:28:10;28.55;;;16.85;;
20637;SDS011;10478;49.004;8.470;2023-05-16T03:30:36;36.75;;;17.63;;
20637;SDS011;10478;49.004;8.470;2023-05-16T03:33:01;30.83;;;15.15;;
20637;SDS011;10478;49.004;8.470;2023-05-16T03:35:28;30.40;;;14.73;;
20637;SDS011;10478;49.004;8.470;2023-05-16T03:37:53;34.45;;;16.90;;
20637;SDS011;10478;49.004;8.470;2023-05-16T03:40:19;29.88;;;15.60;;
20637;SDS011;10478;49.004;8.470;2023-05-16T03:42:44;27.90;;;15.77;;
20637;SDS011;10478;49.004;8.470;2023-05-16T03:45:10;29.52;;;16.92;;
20637;SDS011;10478;49.004;8.470;2023-05-16T03:47:36;34.60;;;16.13;;
20637;SDS011;10478;49.004;8.470;2023-05-16T03:50:01;30.92;;;16.65;;
20637;SDS011;10478;49.004;8.470;2023-05-16T03:52:27;30.77;;;15.10;;
20637;SDS011;10478;49.004;8.470;2023-05-16T03:54:52;29.15;;;14.95;;
20637;SDS011;10478;49.004;8.470;2023-05-16T03:57:18;28.05;;;15.38;;
20637;SDS011;10478;49.004;8.470;2023-05-16T03:59:43;30.33;;;16.20;;
20637;SDS011;10478;49.004;8.470;2023-05-16T04:02:08;27.08;;;14.52;;
20637;SDS011;10478;49.004;8.470;2023-05-16T04:04:33;28.45;;;14.35;;
20637;SDS011;10478;49.004;8.470;2023-05-16T04:07:00;32.47;;;15.77;;
20637;SDS011;10478;49.004;8.470;2023-05-16T04:09:25;25.27;;;14.57;;
20637;SDS011;10478;49.004;8.470;2023-05-16T04:11:51;26.52;;;14.32;;
20637;SDS011;10478;49.004;8.470;2023-05-16T04:14:16;31.05;;;14.32;;
20637;SDS011;10478;49.004;8.470;2023-05-16T04:16:41;29.77;;;14.20;;
20637;SDS011;10478;49.004;8.470;2023-05-16T04:19:07;28.75;;;15.13;;
20637;SDS011;10478;49.004;8.470;2023-05-16T04:21:32;28.45;;;14.60;;
20637;SDS011;10478;49.004;8.470;2023-05-16T04:23:59;30.67;;;15.88;;
20637;SDS011;10478;49.004;8.470;2023-05-16T04:26:25;34.30;;;15.40;;
20637;SDS011;10478;49.004;8.470;2023-05-16T04:28:51;25.40;;;13.95;;
20637;SDS011;10478;49.004;8.470;2023-05-16T04:31:16;25.13;;;14.25;;
20637;SDS011;10478;49.004;8.470;2023-05-16T04:33:42;34.90;;;16.10;;
20637;SDS011;10478;49.004;8.470;2023-05-16T04:36:07;31.88;;;13.68;;
20637;SDS011;10478;49.004;8.470;2023-05-16T04:38:33;28.23;;;14.52;;
20637;SDS011;10478;49.004;8.470;2023-05-16T04:40:58;34.70;;;15.35;;
20637;SDS011;10478;49.004;8.470;2023-05-16T04:43:23;20.23;;;13.27;;
20637;SDS011;10478;49.004;8.470;2023-05-16T04:45:49;31.00;;;15.00;;
20637;SDS011;10478;49.004;8.470;2023-05-16T04:48:14;25.55;;;13.13;;
20637;SDS011;10478;49.004;8.470;2023-05-16T04:50:40;30.95;;;13.32;;
20637;SDS011;10478;49.004;8.470;2023-05-16T04:53:05;24.70;;;12.77;;
20637;SDS011;10478;49.004;8.470;2023-05-16T04:55:31;27.08;;;13.73;;
20637;SDS011;10478;49.004;8.470;2023-05-16T04:57:56;27.33;;;12.70;;
20637;SDS011;10478;49.004;8.470;2023-05-16T05:00:21;24.13;;;11.82;;
20637;SDS011;10478;49.004;8.470;2023-05-16T05:02:47;23.50;;;11.95;;
20637;SDS011;10478;49.004;8.470;2023-05-16T05:05:12;29.75;;;12.85;;
20637;SDS011;10478;49.004;8.470;2023-05-16T05:07:37;32.05;;;14.15;;
20637;SDS011;10478;49.004;8.470;2023-05-16T05:10:03;29.40;;;13.23;;
20637;SDS011;10478;49.004;8.470;2023-05-16T05:12:29;24.85;;;12.48;;
20637;SDS011;10478;49.004;8.470;2023-05-16T05:14:54;25.67;;;11.50;;
20637;SDS011;10478;49.004;8.470;2023-05-16T05:17:20;25.00;;;13.40;;
20637;SDS011;10478;49.004;8.470;2023-05-16T05:19:46;28.42;;;12.85;;
20637;SDS011;10478;49.004;8.470;2023-05-16T05:22:12;26.02;;;12.48;;
20637;SDS011;10478;49.004;8.470;2023-05-16T05:24:37;23.90;;;11.98;;
20637;SDS011;10478;49.004;8.470;2023-05-16T05:27:03;29.02;;;14.38;;
20637;SDS011;10478;49.004;8.470;2023-05-16T05:29:28;30.52;;;13.18;;
20637;SDS011;10478;49.004;8.470;2023-05-16T05:31:53;26.23;;;14.27;;
20637;SDS011;10478;49.004;8.470;2023-05-16T05:34:19;31.52;;;13.43;;
20637;SDS011;10478;49.004;8.470;2023-05-16T05:36:44;26.63;;;12.23;;
20637;SDS011;10478;49.004;8.470;2023-05-16T05:39:10;24.58;;;11.20;;
20637;SDS011;10478;49.004;8.470;2023-05-16T05:41:35;26.30;;;11.20;;
20637;SDS011;10478;49.004;8.470;2023-05-16T05:44:01;25.38;;;12.23;;
20637;SDS011;10478;49.004;8.470;2023-05-16T05:46:27;20.63;;;11.10;;
20637;SDS011;10478;49.004;8.470;2023-05-16T05:48:52;20.50;;;10.20;;
20637;SDS011;10478;49.004;8.470;2023-05-16T05:51:17;18.67;;;10.60;;
20637;SDS011;10478;49.004;8.470;2023-05-16T05:53:43;23.10;;;11.32;;
20637;SDS011;10478;49.004;8.470;2023-05-16T05:56:08;19.95;;;9.40;;
20637;SDS011;10478;49.004;8.470;2023-05-16T05:58:34;19.08;;;9.65;;
20637;SDS011;10478;49.004;8.470;2023-05-16T06:00:59;19.88;;;9.38;;
20637;SDS011;10478;49.004;8.470;2023-05-16T06:03:24;19.73;;;9.90;;
20637;SDS011;10478;49.004;8.470;2023-05-16T06:05:50;22.52;;;10.98;;
20637;SDS011;10478;49.004;8.470;2023-05-16T06:08:16;20.73;;;9.07;;
20637;SDS011;10478;49.004;8.470;2023-05-16T06:10:41;18.75;;;8.88;;
20637;SDS011;10478;49.004;8.470;2023-05-16T06:13:06;20.75;;;9.57;;
20637;SDS011;10478;49.004;8.470;2023-05-16T06:15:32;17.83;;;9.23;;
20637;SDS011;10478;49.004;8.470;2023-05-16T06:17:57;18.55;;;8.77;;
20637;SDS011;10478;49.004;8.470;2023-05-16T06:20:23;15.35;;;8.30;;
20637;SDS011;10478;49.004;8.470;2023-05-16T06:22:48;15.35;;;7.78;;
20637;SDS011;10478;49.004;8.470;2023-05-16T06:25:13;16.42;;;8.02;;
20637;SDS011;10478;49.004;8.470;2023-05-16T06:27:39;15.13;;;7.85;;
20637;SDS011;10478;49.004;8.470;2023-05-16T06:30:04;12.57;;;6.65;;
20637;SDS011;10478;49.004;8.470;2023-05-16T06:32:30;11.88;;;6.10;;
20637;SDS011;10478;49.004;8.470;2023-05-16T06:34:55;12.77;;;6.68;;
20637;SDS011;10478;49.004;8.470;2023-05-16T06:37:21;11.98;;;6.53;;
20637;SDS011;10478;49.004;8.470;2023-05-16T06:39:47;14.35;;;6.30;;
20637;SDS011;10478;49.004;8.470;2023-05-16T06:42:12;11.02;;;5.50;;
20637;SDS011;10478;49.004;8.470;2023-05-16T06:44:38;13.77;;;6.53;;
20637;SDS011;10478;49.004;8.470;2023-05-16T06:47:03;13.55;;;5.68;;
20637;SDS011;10478;49.004;8.470;2023-05-16T06:49:29;12.00;;;4.78;;
20637;SDS011;10478;49.004;8.470;2023-05-16T06:51:54;9.32;;;4.65;;
20637;SDS011;10478;49.004;8.470;2023-05-16T06:54:19;10.07;;;4.78;;
20637;SDS011;10478;49.004;8.470;2023-05-16T06:56:45;8.80;;;4.15;;
20637;SDS011;10478;49.004;8.470;2023-05-16T06:59:11;10.40;;;4.70;;
20637;SDS011;10478;49.004;8.470;2023-05-16T07:01:36;7.72;;;4.75;;
20637;SDS011;10478;49.004;8.470;2023-05-16T07:04:01;7.95;;;3.53;;
20637;SDS011;10478;49.004;8.470;2023-05-16T07:06:27;8.20;;;3.75;;
20637;SDS011;10478;49.004;8.470;2023-05-16T07:08:52;5.80;;;3.15;;
20637;SDS011;10478;49.004;8.470;2023-05-16T07:11:17;6.53;;;3.22;;
20637;SDS011;10478;49.004;8.470;2023-05-16T07:13:43;9.90;;;3.40;;
20637;SDS011;10478;49.004;8.470;2023-05-16T07:16:08;11.98;;;3.88;;
20637;SDS011;10478;49.004;8.470;2023-05-16T07:18:33;5.95;;;2.40;;
20637;SDS011;10478;49.004;8.470;2023-05-16T07:20:58;7.03;;;3.25;;
20637;SDS011;10478;49.004;8.470;2023-05-16T07:23:24;4.90;;;2.47;;
20637;SDS011;10478;49.004;8.470;2023-05-16T07:25:49;5.68;;;2.47;;
20637;SDS011;10478;49.004;8.470;2023-05-16T07:28:15;6.28;;;3.22;;
20637;SDS011;10478;49.004;8.470;2023-05-16T07:30:41;4.30;;;1.80;;
20637;SDS011;10478;49.004;8.470;2023-05-16T07:33:06;3.72;;;1.90;;
20637;SDS011;10478;49.004;8.470;2023-05-16T07:35:31;2.85;;;1.85;;
20637;SDS011;10478;49.004;8.470;2023-05-16T07:37:57;2.50;;;1.40;;
20637;SDS011;10478;49.004;8.470;2023-05-16T07:40:22;3.13;;;1.50;;
20637;SDS011;10478;49.004;8.470;2023-05-16T07:42:52;3.97;;;1.55;;
20637;SDS011;10478;49.004;8.470;2023-05-16T07:45:17;1.67;;;1.20;;
20637;SDS011;10478;49.004;8.470;2023-05-16T07:47:43;1.75;;;1.15;;
20637;SDS011;10478;49.004;8.470;2023-05-16T07:50:09;2.10;;;1.25;;
20637;SDS011;10478;49.004;8.470;2023-05-16T07:52:34;1.90;;;1.30;;
20637;SDS011;10478;49.004;8.470;2023-05-16T07:55:00;2.00;;;1.27;;
20637;SDS011;10478;49.004;8.470;2023-05-16T07:57:25;2.65;;;1.15;;
20637;SDS011;10478;49.004;8.470;2023-05-16T07:59:51;4.25;;;1.63;;
20637;SDS011;10478;49.004;8.470;2023-05-16T08:02:16;3.28;;;1.73;;
20637;SDS011;10478;49.004;8.470;2023-05-16T08:04:42;1.90;;;1.13;;
20637;SDS011;10478;49.004;8.470;2023-05-16T08:07:07;1.48;;;1.00;;
20637;SDS011;10478;49.004;8.470;2023-05-16T08:09:33;3.05;;;1.15;;
20637;SDS011;10478;49.004;8.470;2023-05-16T08:11:59;1.45;;;1.10;;
20637;SDS011;10478;49.004;8.470;2023-05-16T08:14:27;2.25;;;1.52;;
20637;SDS011;10478;49.004;8.470;2023-05-16T08:16:57;1.38;;;0.90;;
20637;SDS011;10478;49.004;8.470;2023-05-16T08:19:23;2.08;;;0.98;;
20637;SDS011;10478;49.004;8.470;2023-05-16T08:21:48;2.10;;;1.20;;
20637;SDS011;10478;49.004;8.470;2023-05-16T08:24:14;2.47;;;1.50;;
20637;SDS011;10478;49.004;8.470;2023-05-16T08:26:39;2.40;;;1.50;;
20637;SDS011;10478;49.004;8.470;2023-05-16T08:29:04;2.30;;;1.40;;
20637;SDS011;10478;49.004;8.470;2023-05-16T08:31:30;2.80;;;1.48;;
20637;SDS011;10478;49.004;8.470;2023-05-16T08:33:55;2.25;;;1.20;;
20637;SDS011;10478;49.004;8.470;2023-05-16T08:36:20;2.17;;;1.38;;
20637;SDS011;10478;49.004;8.470;2023-05-16T08:38:48;1.95;;;1.10;;
20637;SDS011;10478;49.004;8.470;2023-05-16T08:41:13;2.53;;;1.88;;
20637;SDS011;10478;49.004;8.470;2023-05-16T08:43:39;1.45;;;1.10;;
20637;SDS011;10478;49.004;8.470;2023-05-16T08:46:05;2.72;;;1.33;;
20637;SDS011;10478;49.004;8.470;2023-05-16T08:48:31;1.88;;;1.45;;
20637;SDS011;10478;49.004;8.470;2023-05-16T08:50:57;3.05;;;1.40;;
20637;SDS011;10478;49.004;8.470;2023-05-16T08:53:25;1.63;;;1.10;;
20637;SDS011;10478;49.004;8.470;2023-05-16T08:55:56;2.53;;;1.23;;
20637;SDS011;10478;49.004;8.470;2023-05-16T08:58:22;2.33;;;1.33;;
20637;SDS011;10478;49.004;8.470;2023-05-16T09:00:47;2.00;;;0.95;;
20637;SDS011;10478;49.004;8.470;2023-05-16T09:03:13;1.77;;;1.23;;
20637;SDS011;10478;49.004;8.470;2023-05-16T09:05:38;1.83;;;1.27;;
20637;SDS011;10478;49.004;8.470;2023-05-16T09:08:03;1.38;;;1.00;;
20637;SDS011;10478;49.004;8.470;2023-05-16T09:10:29;2.63;;;1.40;;
20637;SDS011;10478;49.004;8.470;2023-05-16T09:12:55;2.38;;;1.30;;
20637;SDS011;10478;49.004;8.470;2023-05-16T09:15:20;1.83;;;1.02;;
20637;SDS011;10478;49.004;8.470;2023-05-16T09:17:46;4.05;;;1.23;;
20637;SDS011;10478;49.004;8.470;2023-05-16T09:20:12;1.88;;;1.10;;
20637;SDS011;10478;49.004;8.470;2023-05-16T09:22:39;2.22;;;1.20;;
20637;SDS011;10478;49.004;8.470;2023-05-16T09:25:05;1.95;;;1.40;;
20637;SDS011;10478;49.004;8.470;2023-05-16T09:27:31;2.00;;;0.93;;
20637;SDS011;10478;49.004;8.470;2023-05-16T09:29:57;2.15;;;1.10;;
20637;SDS011;10478;49.004;8.470;2023-05-16T09:32:23;1.73;;;0.80;;
20637;SDS011;10478;49.004;8.470;2023-05-16T09:34:48;1.90;;;1.15;;
20637;SDS011;10478;49.004;8.470;2023-05-16T09:37:16;4.75;;;1.15;;
20637;SDS011;10478;49.004;8.470;2023-05-16T09:39:44;2.45;;;1.50;;
20637;SDS011;10478;49.004;8.470;2023-05-16T09:42:17;1.40;;;0.90;;
20637;SDS011;10478;49.004;8.470;2023-05-16T09:44:50;2.90;;;1.05;;
20637;SDS011;10478;49.004;8.470;2023-05-16T09:47:17;1.50;;;1.23;;
20637;SDS011;10478;49.004;8.470;2023-05-16T09:49:44;1.77;;;0.73;;
20637;SDS011;10478;49.004;8.470;2023-05-16T09:52:10;1.42;;;0.70;;
20637;SDS011;10478;49.004;8.470;2023-05-16T09:54:36;1.98;;;1.00;;
20637;SDS011;10478;49.004;8.470;2023-05-16T09:57:01;2.05;;;1.05;;
20637;SDS011;10478;49.004;8.470;2023-05-16T09:59:30;2.22;;;1.08;;
20637;SDS011;10478;49.004;8.470;2023-05-16T10:01:59;1.20;;;0.80;;
20637;SDS011;10478;49.004;8.470;2023-05-16T10:04:25;1.83;;;0.80;;
20637;SDS011;10478;49.004;8.470;2023-05-16T10:06:50;2.10;;;1.30;;
20637;SDS011;10478;49.004;8.470;2023-05-16T10:09:20;1.25;;;0.90;;
20637;SDS011;10478;49.004;8.470;2023-05-16T10:11:46;1.23;;;0.80;;
20637;SDS011;10478;49.004;8.470;2023-05-16T10:14:12;1.27;;;0.70;;
20637;SDS011;10478;49.004;8.470;2023-05-16T10:16:42;2.00;;;1.17;;
20637;SDS011;10478;49.004;8.470;2023-05-16T10:19:08;2.63;;;1.33;;
20637;SDS011;10478;49.004;8.470;2023-05-16T10:21:33;0.77;;;0.50;;
20637;SDS011;10478;49.004;8.470;2023-05-16T10:24:01;1.20;;;0.80;;
20637;SDS011;10478;49.004;8.470;2023-05-16T10:26:28;1.27;;;0.80;;
20637;SDS011;10478;49.004;8.470;2023-05-16T10:28:54;0.93;;;0.73;;
20637;SDS011;10478;49.004;8.470;2023-05-16T10:31:20;1.10;;;0.60;;
20637;SDS011;10478;49.004;8.470;2023-05-16T10:33:46;1.42;;;0.68;;
20637;SDS011;10478;49.004;8.470;2023-05-16T10:36:11;3.08;;;0.60;;
20637;SDS011;10478;49.004;8.470;2023-05-16T10:38:37;1.88;;;0.57;;
20637;SDS011;10478;49.004;8.470;2023-05-16T10:41:03;2.88;;;0.60;;
20637;SDS011;10478;49.004;8.470;2023-05-16T10:43:29;1.40;;;0.70;;
20637;SDS011;10478;49.004;8.470;2023-05-16T10:46:08;0.82;;;0.50;;
20637;SDS011;10478;49.004;8.470;2023-05-16T10:48:35;1.60;;;0.68;;
20637;SDS011;10478;49.004;8.470;2023-05-16T10:51:02;1.63;;;0.80;;
20637;SDS011;10478;49.004;8.470;2023-05-16T10:53:53;1.20;;;0.60;;
20637;SDS011;10478;49.004;8.470;2023-05-16T10:56:22;0.98;;;0.77;;
20637;SDS011;10478;49.004;8.470;2023-05-16T10:58:49;1.48;;;0.75;;
20637;SDS011;10478;49.004;8.470;2023-05-16T11:01:25;12.82;;;0.70;;
20637;SDS011;10478;49.004;8.470;2023-05-16T11:14:33;0.50;;;0.28;;
20637;SDS011;10478;49.004;8.470;2023-05-16T11:17:08;4.13;;;0.30;;
20637;SDS011;10478;49.004;8.470;2023-05-16T11:19:56;0.60;;;0.40;;
20637;SDS011;10478;49.004;8.470;2023-05-16T11:22:25;1.55;;;0.30;;
20637;SDS011;10478;49.004;8.470;2023-05-16T11:27:34;0.50;;;0.40;;
20637;SDS011;10478;49.004;8.470;2023-05-16T11:32:29;2.15;;;0.45;;
20637;SDS011;10478;49.004;8.470;2023-05-16T11:34:54;0.85;;;0.47;;
20637;SDS011;10478;49.004;8.470;2023-05-16T11:37:20;0.88;;;0.47;;
20637;SDS011;10478;49.004;8.470;2023-05-16T11:39:46;0.82;;;0.57;;
20637;SDS011;10478;49.004;8.470;2023-05-16T11:42:12;0.77;;;0.63;;
20637;SDS011;10478;49.004;8.470;2023-05-16T11:44:38;2.53;;;0.50;;
20637;SDS011;10478;49.004;8.470;2023-05-16T11:47:04;1.70;;;0.73;;
20637;SDS011;10478;49.004;8.470;2023-05-16T11:49:30;0.68;;;0.50;;
20637;SDS011;10478;49.004;8.470;2023-05-16T11:51:55;0.85;;;0.55;;
20637;SDS011;10478;49.004;8.470;2023-05-16T11:54:21;1.27;;;0.90;;
20637;SDS011;10478;49.004;8.470;2023-05-16T11:56:48;1.33;;;0.50;;
20637;SDS011;10478;49.004;8.470;2023-05-16T11:59:14;1.52;;;0.45;;
20637;SDS011;10478;49.004;8.470;2023-05-16T12:01:39;1.60;;;0.50;;
20637;SDS011;10478;49.004;8.470;2023-05-16T12:04:08;2.05;;;0.65;;
20637;SDS011;10478;49.004;8.470;2023-05-16T12:06:35;1.58;;;0.90;;
20637;SDS011;10478;49.004;8.470;2023-05-16T12:09:01;0.90;;;0.63;;
20637;SDS011;10478;49.004;8.470;2023-05-16T12:11:34;0.73;;;0.60;;
20637;SDS011;10478;49.004;8.470;2023-05-16T12:13:59;0.90;;;0.60;;
20637;SDS011;10478;49.004;8.470;2023-05-16T12:16:25;2.08;;;1.00;;
20637;SDS011;10478;49.004;8.470;2023-05-16T12:18:50;1.80;;;0.93;;
20637;SDS011;10478;49.004;8.470;2023-05-16T12:21:17;4.32;;;0.68;;
20637;SDS011;10478;49.004;8.470;2023-05-16T12:23:42;2.00;;;0.90;;
20637;SDS011;10478;49.004;8.470;2023-05-16T12:26:07;1.23;;;0.70;;
20637;SDS011;10478;49.004;8.470;2023-05-16T12:28:33;2.60;;;0.98;;
20637;SDS011;10478;49.004;8.470;2023-05-16T12:30:59;1.55;;;0.82;;
20637;SDS011;10478;49.004;8.470;2023-05-16T12:33:24;2.17;;;1.15;;
20637;SDS011;10478;49.004;8.470;2023-05-16T12:35:50;3.97;;;0.98;;
20637;SDS011;10478;49.004;8.470;2023-05-16T12:38:17;1.35;;;0.75;;
20637;SDS011;10478;49.004;8.470;2023-05-16T12:40:43;4.03;;;0.80;;
20637;SDS011;10478;49.004;8.470;2023-05-16T12:43:15;0.85;;;0.57;;
20637;SDS011;10478;49.004;8.470;2023-05-16T12:45:48;2.15;;;1.00;;
20637;SDS011;10478;49.004;8.470;2023-05-16T12:48:15;2.95;;;0.77;;
20637;SDS011;10478;49.004;8.470;2023-05-16T12:50:40;1.23;;;0.60;;
20637;SDS011;10478;49.004;8.470;2023-05-16T12:53:09;4.97;;;1.25;;
20637;SDS011;10478;49.004;8.470;2023-05-16T12:55:36;3.53;;;1.10;;
20637;SDS011;10478;49.004;8.470;2023-05-16T12:58:01;3.35;;;0.90;;
20637;SDS011;10478;49.004;8.470;2023-05-16T13:00:26;4.13;;;1.77;;
20637;SDS011;10478;49.004;8.470;2023-05-16T13:02:52;4.10;;;1.52;;
20637;SDS011;10478;49.004;8.470;2023-05-16T13:05:18;4.88;;;1.30;;
20637;SDS011;10478;49.004;8.470;2023-05-16T13:07:46;6.03;;;1.90;;
20637;SDS011;10478;49.004;8.470;2023-05-16T13:10:11;3.83;;;1.50;;
20637;SDS011;10478;49.004;8.470;2023-05-16T13:12:37;2.28;;;1.23;;
20637;SDS011;10478;49.004;8.470;2023-05-16T13:15:04;7.10;;;1.70;;
20637;SDS011;10478;49.004;8.470;2023-05-16T13:17:35;4.68;;;1.38;;
20637;SDS011;10478;49.004;8.470;2023-05-16T13:20:01;3.70;;;1.38;;
20637;SDS011;10478;49.004;8.470;2023-05-16T13:22:32;3.70;;;1.27;;
20637;SDS011;10478;49.004;8.470;2023-05-16T13:24:57;2.90;;;1.35;;
20637;SDS011;10478;49.004;8.470;2023-05-16T13:27:22;4.80;;;1.40;;
20637;SDS011;10478;49.004;8.470;2023-05-16T13:29:48;5.13;;;1.60;;
20637;SDS011;10478;49.004;8.470;2023-05-16T13:32:13;6.45;;;1.30;;
20637;SDS011;10478;49.004;8.470;2023-05-16T13:34:38;6.00;;;1.48;;
20637;SDS011;10478;49.004;8.470;2023-05-16T13:37:04;2.28;;;1.10;;
20637;SDS011;10478;49.004;8.470;2023-05-16T13:39:29;6.93;;;1.60;;
20637;SDS011;10478;49.004;8.470;2023-05-16T13:41:54;6.53;;;1.70;;
20637;SDS011;10478;49.004;8.470;2023-05-16T13:44:20;4.13;;;1.40;;
20637;SDS011;10478;49.004;8.470;2023-05-16T13:46:46;6.85;;;1.60;;
20637;SDS011;10478;49.004;8.470;2023-05-16T13:49:11;3.60;;;1.70;;
20637;SDS011;10478;49.004;8.470;2023-05-16T13:51:37;3.92;;;1.48;;
20637;SDS011;10478;49.004;8.470;2023-05-16T13:54:03;4.60;;;1.65;;
20637;SDS011;10478;49.004;8.470;2023-05-16T13:56:28;3.95;;;1.77;;
20637;SDS011;10478;49.004;8.470;2023-05-16T13:58:53;2.83;;;1.40;;
20637;SDS011;10478;49.004;8.470;2023-05-16T14:01:18;6.32;;;1.40;;
20637;SDS011;10478;49.004;8.470;2023-05-16T14:03:45;6.47;;;1.63;;
20637;SDS011;10478;49.004;8.470;2023-05-16T14:06:10;2.78;;;1.15;;
20637;SDS011;10478;49.004;8.470;2023-05-16T14:08:36;6.18;;;1.88;;
20637;SDS011;10478;49.004;8.470;2023-05-16T14:11:01;11.18;;;1.38;;
20637;SDS011;10478;49.004;8.470;2023-05-16T14:13:26;4.05;;;1.40;;
20637;SDS011;10478;49.004;8.470;2023-05-16T14:15:52;6.95;;;1.25;;
20637;SDS011;10478;49.004;8.470;2023-05-16T14:18:17;7.30;;;1.38;;
20637;SDS011;10478;49.004;8.470;2023-05-16T14:20:42;4.72;;;1.65;;
20637;SDS011;10478;49.004;8.470;2023-05-16T14:23:08;5.63;;;1.38;;
20637;SDS011;10478;49.004;8.470;2023-05-16T14:25:33;6.43;;;2.10;;
20637;SDS011;10478;49.004;8.470;2023-05-16T14:27:58;7.80;;;1.38;;
20637;SDS011;10478;49.004;8.470;2023-05-16T14:30:23;3.40;;;1.17;;
20637;SDS011;10478;49.004;8.470;2023-05-16T14:32:50;5.90;;;1.60;;
20637;SDS011;10478;49.004;8.470;2023-05-16T14:35:15;6.90;;;1.15;;
20637;SDS011;10478;49.004;8.470;2023-05-16T14:37:41;6.40;;;1.20;;
20637;SDS011;10478;49.004;8.470;2023-05-16T14:40:06;3.90;;;1.13;;
20637;SDS011;10478;49.004;8.470;2023-05-16T14:42:32;2.47;;;1.40;;
20637;SDS011;10478;49.004;8.470;2023-05-16T14:44:58;14.38;;;1.30;;
20637;SDS011;10478;49.004;8.470;2023-05-16T14:47:23;4.82;;;1.05;;
20637;SDS011;10478;49.004;8.470;2023-05-16T14:49:49;4.55;;;1.17;;
20637;SDS011;10478;49.004;8.470;2023-05-16T14:52:14;7.80;;;1.85;;
20637;SDS011;10478;49.004;8.470;2023-05-16T14:54:39;2.75;;;1.27;;
20637;SDS011;10478;49.004;8.470;2023-05-16T14:57:05;1.58;;;0.73;;
20637;SDS011;10478;49.004;8.470;2023-05-16T14:59:31;7.72;;;1.10;;
20637;SDS011;10478;49.004;8.470;2023-05-16T15:01:57;2.45;;;1.23;;